Time;durP1;ratioP1;P1;durP2;ratioP2;P2;SDS_P1;SDS_P2;PMS_P1;PMS_P2;Temp;Humidity;BMP_temperature;BMP_pressure;BME280_temperature;BME280_humidity;BME280_pressure;Samples;Min_cycle;Max_cycle;Signal;HPM_P1;HPM_P2
2022/06/14 00:01:02;;;;;;;9.30;2.80;;;;;;;17.47;55.63;98800.38;4469362;32;20384;-76
2022/06/14 00:03:33;;;;;;;7.82;2.50;;;;;;;17.45;55.74;98805.00;4469198;32;20097;-78
2022/06/14 00:06:03;;;;;;;9.15;2.80;;;;;;;17.44;55.63;98808.62;4468102;32;20097;-79
2022/06/14 00:08:28;;;;;;;8.52;2.87;;;;;;;17.51;55.25;98813.44;4468007;32;20763;-79
2022/06/14 00:10:56;;;;;;;7.85;2.72;;;;;;;17.45;55.17;98807.66;4468021;32;20089;-78
2022/06/14 00:13:22;;;;;;;;;;;;;;;17.28;55.37;98800.22;4469476;32;20115;-78
2022/06/14 00:15:48;;;;;;;8.73;2.50;;;;;;;17.52;54.67;98808.00;4469348;32;19973;-79
2022/06/14 00:18:14;;;;;;;10.80;2.80;;;;;;;17.45;54.86;98807.66;4482651;32;20113;-79
2022/06/14 00:20:41;;;;;;;9.18;2.95;;;;;;;17.50;54.70;98804.63;4484958;32;20088;-79
2022/06/14 00:23:07;;;;;;;7.85;2.67;;;;;;;17.60;54.34;98797.56;4470725;32;20076;-79
2022/06/14 00:25:53;;;;;;;10.15;2.70;;;;;;;17.73;53.80;98805.37;4470604;32;20361;-78
2022/06/14 00:28:20;;;;;;;10.00;2.80;;;;;;;17.64;53.94;98814.13;4484885;32;20122;-77
2022/06/14 00:30:48;;;;;;;8.77;2.90;;;;;;;17.48;54.47;98822.53;4470325;32;20475;-79
2022/06/14 00:33:14;;;;;;;9.75;2.83;;;;;;;17.56;54.06;98830.75;4470042;32;20088;-79
2022/06/14 00:35:39;;;;;;;9.82;2.70;;;;;;;17.60;53.99;98839.34;4470567;32;20489;-77
2022/06/14 00:38:05;;;;;;;7.70;2.60;;;;;;;17.61;53.93;98839.19;4484789;32;20122;-79
2022/06/14 00:40:33;;;;;;;7.82;2.80;;;;;;;17.30;54.70;98835.53;4484676;32;20092;-78
2022/06/14 00:43:02;;;;;;;8.75;2.85;;;;;;;17.39;54.50;98839.28;4470432;32;20809;-80
2022/06/14 00:45:28;;;;;;;8.23;2.90;;;;;;;17.48;54.08;98843.81;4470586;32;20100;-78
2022/06/14 00:48:06;;;;;;;8.55;2.92;;;;;;;17.27;54.93;98852.63;4484495;32;20145;-77
2022/06/14 00:50:41;;;;;;;9.80;2.58;;;;;;;17.33;54.71;98861.09;4470075;32;20443;-77
2022/06/14 00:53:10;;;;;;;10.02;2.78;;;;;;;17.55;54.07;98866.34;4471134;32;20467;-80
2022/06/14 00:55:48;;;;;;;7.53;2.70;;;;;;;17.48;54.41;98863.34;4472248;32;20160;-77
2022/06/14 00:58:17;;;;;;;9.63;2.75;;;;;;;17.53;54.57;98867.44;4486776;32;20498;-78
2022/06/14 01:00:52;;;;;;;7.85;2.95;;;;;;;17.33;55.35;98885.06;4472355;32;20164;-77
2022/06/14 01:03:23;;;;;;;8.00;3.10;;;;;;;17.42;55.36;98876.28;4472266;32;20084;-78
2022/06/14 01:06:07;;;;;;;12.07;3.30;;;;;;;17.48;55.39;98887.31;4486583;32;20100;-78
2022/06/14 01:09:13;;;;;;;11.73;3.33;;;;;;;17.55;55.35;98884.12;4486532;32;20096;-78
2022/06/14 01:11:54;;;;;;;8.85;3.10;;;;;;;17.61;55.44;98883.63;4485944;31;20451;-79
2022/06/14 01:14:23;;;;;;;8.73;3.28;;;;;;;17.71;55.10;98884.56;4479506;31;222996;-78
2022/06/14 01:16:50;;;;;;;9.70;3.70;;;;;;;17.47;55.71;98877.62;4486355;31;20156;-79
2022/06/14 01:19:21;;;;;;;10.18;3.22;;;;;;;17.53;55.73;98878.94;4485256;32;20127;-77
2022/06/14 01:22:10;;;;;;;9.90;3.53;;;;;;;17.47;55.77;98885.59;4485340;32;20088;-77
2022/06/14 01:24:37;;;;;;;8.55;3.60;;;;;;;17.44;55.91;98893.00;4486319;32;20110;-79
2022/06/14 01:27:08;;;;;;;9.60;3.17;;;;;;;17.36;56.17;98895.44;4485406;32;20475;-79
2022/06/14 01:29:34;;;;;;;10.60;3.10;;;;;;;17.43;56.01;98900.16;4485267;32;20519;-78
2022/06/14 01:32:01;;;;;;;11.10;3.45;;;;;;;17.48;55.63;98897.97;4485208;32;20458;-79
2022/06/14 01:34:30;;;;;;;8.80;3.22;;;;;;;17.52;55.60;98908.34;4485146;32;20473;-79
2022/06/14 01:36:57;;;;;;;9.45;3.15;;;;;;;17.48;55.38;98905.09;4485415;32;20060;-78
2022/06/14 01:39:23;;;;;;;11.15;3.30;;;;;;;17.19;55.84;98897.66;4484280;31;20100;-78
2022/06/14 01:41:58;;;;;;;10.95;3.22;;;;;;;17.11;55.94;98910.72;4486330;32;20134;-78
2022/06/14 01:44:41;;;;;;;8.13;2.70;;;;;;;16.98;56.27;98908.19;4482364;31;20093;-77
2022/06/14 01:47:06;;;;;;;9.02;3.17;;;;;;;16.77;56.61;98909.84;4487617;31;20107;-78
2022/06/14 01:52:59;;;;;;;9.32;2.85;;;;;;;17.00;56.02;98919.56;4486208;32;20118;-77
2022/06/14 01:55:34;;;;;;;7.97;3.22;;;;;;;16.98;56.05;98921.50;4472256;32;20739;-76
2022/06/14 01:58:21;;;;;;;8.95;3.00;;;;;;;16.98;56.09;98925.97;4486037;32;20545;-78
2022/06/14 02:01:29;;;;;;;7.75;2.53;;;;;;;16.85;56.21;98929.59;4486259;32;20084;-78
2022/06/14 02:07:21;;;;;;;10.88;3.40;;;;;;;16.98;55.57;98931.28;4474017;32;20101;-77
2022/06/14 02:10:02;;;;;;;8.60;2.70;;;;;;;17.02;55.35;98927.44;4472055;32;20118;-78
2022/06/14 02:12:33;;;;;;;8.68;2.72;;;;;;;17.05;55.14;98924.50;4484796;32;20100;-79
2022/06/14 02:15:06;;;;;;;7.60;2.78;;;;;;;16.88;55.66;98936.47;4484821;32;20085;-78
2022/06/14 02:17:36;;;;;;;8.73;2.60;;;;;;;16.88;55.41;98932.03;4471656;32;20118;-77
2022/06/14 02:20:07;;;;;;;7.62;2.50;;;;;;;16.99;55.05;98938.31;4471947;32;20100;-79
2022/06/14 02:22:39;;;;;;;9.95;3.20;;;;;;;17.04;54.88;98928.16;4471436;32;20095;-78
2022/06/14 02:25:08;;;;;;;8.70;2.78;;;;;;;17.07;54.78;98923.44;4486083;32;20155;-78
2022/06/14 02:27:51;;;;;;;9.38;2.53;;;;;;;17.29;54.35;98935.88;4471584;32;20127;-77
2022/06/14 02:30:19;;;;;;;9.30;2.72;;;;;;;17.38;53.90;98939.59;4486076;32;20093;-77
2022/06/14 02:33:22;;;;;;;7.80;2.53;;;;;;;17.29;54.00;98935.03;4471746;32;20118;-78
2022/06/14 02:35:52;;;;;;;7.28;2.37;;;;;;;17.27;53.93;98937.81;4468510;32;20149;-77
2022/06/14 02:38:25;;;;;;;9.05;3.12;;;;;;;17.40;53.58;98932.38;4471492;32;20134;-78
2022/06/14 02:41:00;;;;;;;9.63;2.83;;;;;;;17.33;53.70;98941.81;4471586;32;20128;-78
2022/06/14 02:43:49;;;;;;;9.27;2.85;;;;;;;17.40;53.43;98947.47;4471629;32;20127;-78
2022/06/14 02:46:22;;;;;;;10.10;2.60;;;;;;;17.12;54.04;98951.50;4485951;32;20110;-76
2022/06/14 02:49:01;;;;;;;7.55;2.70;;;;;;;17.34;53.55;98950.63;4485845;32;20452;-76
2022/06/14 02:51:33;;;;;;;7.25;2.78;;;;;;;17.37;53.45;98945.06;4471819;32;20452;-76
2022/06/14 02:54:09;;;;;;;7.85;3.08;;;;;;;17.52;52.93;98941.19;4471572;32;20088;-79
2022/06/14 02:56:42;;;;;;;10.05;2.75;;;;;;;17.45;53.07;98948.81;4471582;32;20087;-76
2022/06/14 02:59:28;;;;;;;6.37;2.65;;;;;;;17.42;53.03;98958.84;4471499;32;20516;-78
2022/06/14 03:01:59;;;;;;;10.20;2.60;;;;;;;17.16;53.80;98960.94;4471689;32;20108;-76
2022/06/14 03:04:44;;;;;;;8.23;2.83;;;;;;;17.23;53.50;98957.66;4471592;32;20587;-78
2022/06/14 03:07:17;;;;;;;7.97;2.90;;;;;;;17.35;53.14;98955.00;4471398;32;20092;-77
2022/06/14 03:09:45;;;;;;;8.07;2.70;;;;;;;17.34;52.99;98954.13;4471394;32;20100;-76
2022/06/14 03:12:29;;;;;;;6.25;2.40;;;;;;;17.49;52.62;98957.41;4471267;32;20130;-78
2022/06/14 03:14:55;;;;;;;7.10;2.60;;;;;;;17.49;52.62;98958.25;4485315;32;20479;-77
2022/06/14 03:17:25;;;;;;;6.93;2.37;;;;;;;17.51;52.73;98965.28;4485514;32;20095;-77
2022/06/14 03:20:08;;;;;;;8.00;2.33;;;;;;;17.46;52.32;98963.81;4485591;32;20469;-79
2022/06/14 03:22:48;;;;;;;8.10;2.55;;;;;;;17.61;51.90;98961.72;4485583;32;20088;-79
2022/06/14 03:25:19;;;;;;;6.75;2.30;;;;;;;17.69;51.55;98961.09;4485626;32;20122;-77
2022/06/14 03:27:57;;;;;;;9.32;2.60;;;;;;;17.83;51.17;98971.50;4485680;32;20135;-79
2022/06/14 03:30:36;;;;;;;9.52;2.70;;;;;;;18.08;50.45;98967.69;4458324;32;20088;-77
2022/06/14 03:33:15;;;;;;;7.45;2.28;;;;;;;18.12;50.33;98962.97;4458280;32;20128;-77
2022/06/14 03:35:42;;;;;;;;;;;;;;;18.15;49.66;98957.34;4471840;32;20778;-77
2022/06/14 03:38:32;;;;;;;9.65;2.70;;;;;;;18.14;49.20;98962.81;4471095;32;20413;-78
2022/06/14 03:40:58;;;;;;;9.95;2.95;;;;;;;18.49;48.45;98959.03;4485317;32;20459;-77
2022/06/14 03:43:24;;;;;;;8.60;2.20;;;;;;;18.73;47.59;98964.94;4471195;32;20104;-77
2022/06/14 03:46:20;;;;;;;9.00;2.55;;;;;;;18.83;47.06;98963.22;4485449;32;20122;-78
2022/06/14 03:48:49;;;;;;;7.32;2.37;;;;;;;18.94;46.76;98972.09;4485185;32;20080;-78
2022/06/14 03:51:47;;;;;;;9.65;2.35;;;;;;;19.26;45.34;98966.66;4485209;32;20122;-77
2022/06/14 03:54:21;;;;;;;10.57;2.33;;;;;;;19.26;45.32;98972.00;4485112;32;20119;-78
2022/06/14 03:57:44;;;;;;;8.23;2.65;;;;;;;19.21;45.79;98971.53;4470776;32;20153;-78
2022/06/14 04:00:35;;;;;;;9.20;2.53;;;;;;;19.24;45.77;98971.28;4435989;32;20073;-78
2022/06/14 04:03:06;;;;;;;8.60;2.53;;;;;;;19.38;45.43;98984.25;4422929;32;20102;-76
2022/06/14 04:05:54;;;;;;;7.60;2.40;;;;;;;19.48;45.43;98975.44;4436040;32;20121;-78
2022/06/14 04:08:39;;;;;;;8.73;2.40;;;;;;;19.69;44.81;98989.56;4423247;32;20167;-76
2022/06/14 04:11:32;;;;;;;7.00;2.47;;;;;;;19.53;44.60;98986.53;4435969;32;20093;-78
2022/06/14 04:14:23;;;;;;;8.60;2.40;;;;;;;19.65;44.75;98988.13;4423122;32;20175;-75
2022/06/14 04:17:13;;;;;;;8.52;2.58;;;;;;;19.90;43.84;98997.50;4435692;32;20105;-77
2022/06/14 04:20:26;;;;;;;7.62;2.35;;;;;;;20.02;43.94;98999.06;4435920;32;20526;-76
2022/06/14 04:23:03;;;;;;;7.37;2.20;;;;;;;20.32;43.33;98999.97;4422247;32;20113;-77
2022/06/14 04:25:31;;;;;;;8.32;2.58;;;;;;;20.31;43.62;99003.59;4435745;32;20176;-76
2022/06/14 04:28:21;;;;;;;7.18;2.33;;;;;;;20.59;43.05;99006.41;4436312;32;20102;-78
2022/06/14 04:30:58;;;;;;;9.32;2.37;;;;;;;20.63;42.92;99005.19;4425086;32;20133;-77
2022/06/14 04:33:33;;;;;;;7.10;2.28;;;;;;;20.93;42.41;99006.81;4445304;32;20534;-78
2022/06/14 04:36:03;;;;;;;7.37;2.25;;;;;;;20.64;43.07;99009.53;4491985;31;20085;-79
2022/06/14 04:38:34;;;;;;;8.35;2.37;;;;;;;20.87;43.18;99002.03;4485050;32;20100;-78
2022/06/14 04:41:10;;;;;;;5.72;2.40;;;;;;;21.18;42.42;99015.22;4487750;31;20104;-77
2022/06/14 04:43:40;;;;;;;8.30;2.50;;;;;;;21.44;42.50;99020.81;4488202;31;20101;-78
2022/06/14 04:46:13;;;;;;;9.98;2.55;;;;;;;21.58;42.28;99025.66;4500086;31;20099;-78
2022/06/14 04:48:47;;;;;;;6.72;2.33;;;;;;;21.40;42.34;99028.25;4488056;31;20096;-79
2022/06/14 04:51:24;;;;;;;10.10;2.50;;;;;;;21.69;42.10;99024.63;4489525;31;20084;-80
2022/06/14 04:54:04;;;;;;;7.18;2.70;;;;;;;21.71;42.56;99024.47;4489475;31;20077;-79
2022/06/14 04:57:02;;;;;;;7.60;2.28;;;;;;;21.77;41.81;99032.78;4489313;31;20085;-79
2022/06/14 05:00:00;;;;;;;8.68;2.35;;;;;;;21.99;41.69;99044.06;4489522;31;20135;-79
2022/06/14 05:02:29;;;;;;;7.75;2.30;;;;;;;21.85;42.46;99040.06;4488871;31;20483;-79
2022/06/14 05:05:00;;;;;;;7.15;2.22;;;;;;;21.95;41.41;99038.16;4489569;31;20084;-79
2022/06/14 05:07:36;;;;;;;9.82;2.20;;;;;;;21.94;41.58;99032.94;4489267;31;20106;-80
2022/06/14 05:10:07;;;;;;;8.30;2.70;;;;;;;21.95;41.72;99043.53;4489461;31;20084;-80
2022/06/14 05:12:42;;;;;;;8.25;3.00;;;;;;;22.22;41.01;99040.97;4489214;31;20135;-80
2022/06/14 05:15:11;;;;;;;8.18;2.60;;;;;;;22.08;41.16;99039.63;4503680;31;20080;-78
2022/06/14 05:17:45;;;;;;;7.90;2.40;;;;;;;21.98;41.50;99047.75;4488745;31;20152;-77
2022/06/14 05:20:37;;;;;;;8.05;2.30;;;;;;;22.38;41.42;99057.25;4503534;31;20102;-78
2022/06/14 05:23:23;;;;;;;6.85;2.33;;;;;;;22.40;40.73;99055.25;4489170;31;20164;-80
2022/06/14 05:26:07;;;;;;;7.82;2.35;;;;;;;22.43;40.13;99057.66;4489140;31;20146;-78
2022/06/14 05:28:38;;;;;;;9.27;2.22;;;;;;;22.28;40.89;99062.69;4503482;31;20121;-79
2022/06/14 05:31:30;;;;;;;10.65;2.85;;;;;;;22.35;41.05;99058.41;4489198;31;20164;-82
2022/06/14 05:34:20;;;;;;;10.40;2.30;;;;;;;22.52;41.08;99064.78;4499418;31;20092;-80
2022/06/14 05:37:09;;;;;;;6.95;2.40;;;;;;;22.44;41.20;99063.87;4503434;31;20163;-80
2022/06/14 05:39:42;;;;;;;9.88;2.40;;;;;;;22.21;40.87;99060.75;4489075;31;20137;-83
2022/06/14 05:42:16;;;;;;;12.10;2.50;;;;;;;22.77;40.75;99059.62;4475830;31;20139;-82
2022/06/14 05:44:45;;;;;;;7.15;2.42;;;;;;;22.74;40.06;99059.94;4503630;31;20092;-81
2022/06/14 05:47:14;;;;;;;7.40;2.47;;;;;;;22.95;39.89;99063.13;4488979;31;20126;-79
2022/06/14 05:50:00;;;;;;;8.15;2.35;;;;;;;23.10;39.87;99066.16;4488990;31;20110;-80
2022/06/14 05:52:34;;;;;;;6.82;2.28;;;;;;;23.03;39.14;99066.94;4489025;31;20100;-80
2022/06/14 05:55:11;;;;;;;8.90;2.70;;;;;;;22.99;39.45;99068.22;4489261;31;20100;-80
2022/06/14 05:57:49;;;;;;;7.12;2.25;;;;;;;23.21;39.51;99075.78;4488718;31;20114;-80
2022/06/14 06:00:20;;;;;;;8.32;2.42;;;;;;;23.14;38.96;99072.03;4503470;31;20101;-80
2022/06/14 06:02:54;;;;;;;10.07;2.20;;;;;;;23.04;39.67;99076.66;4476004;31;20518;-80
2022/06/14 06:05:24;;;;;;;9.13;2.65;;;;;;;23.21;38.60;99078.47;4475871;31;20109;-80
2022/06/14 06:07:55;;;;;;;7.18;2.17;;;;;;;23.12;37.82;99074.03;4503167;31;20102;-80
2022/06/14 06:10:32;;;;;;;5.80;2.00;;;;;;;23.17;38.76;99077.94;4488810;31;20112;-80
2022/06/14 06:13:13;;;;;;;7.47;2.50;;;;;;;23.37;38.38;99083.09;4503163;31;20114;-80
2022/06/14 06:15:44;;;;;;;7.62;2.22;;;;;;;23.50;37.65;99086.19;4503240;31;20100;-80
2022/06/14 06:18:16;;;;;;;7.72;2.45;;;;;;;23.87;37.36;99089.62;4503049;31;20084;-80
2022/06/14 06:20:52;;;;;;;7.95;2.17;;;;;;;23.80;37.30;99085.87;4503271;31;20347;-80
2022/06/14 06:23:29;;;;;;;8.85;2.10;;;;;;;23.89;36.83;99088.47;4503175;31;20122;-80
2022/06/14 06:25:56;;;;;;;9.93;2.07;;;;;;;23.94;36.56;99093.34;4488939;31;20100;-80
2022/06/14 06:28:29;;;;;;;8.83;2.17;;;;;;;24.18;36.26;99095.28;4488834;31;20119;-80
2022/06/14 06:31:08;;;;;;;7.25;2.40;;;;;;;24.21;35.36;99091.44;4503153;31;20151;-80
2022/06/14 06:33:37;;;;;;;8.63;2.10;;;;;;;24.21;35.79;99094.97;4488628;31;20148;-80
2022/06/14 06:36:05;;;;;;;7.37;2.08;;;;;;;24.24;35.48;99093.78;4488702;31;20104;-80
2022/06/14 06:38:36;;;;;;;7.50;2.17;;;;;;;24.37;35.56;99093.31;4503058;31;20080;-80
2022/06/14 06:44:00;;;;;;;9.57;1.98;;;;;;;24.58;34.29;99093.72;4490881;31;20108;-80
2022/06/14 06:46:29;;;;;;;7.60;2.10;;;;;;;24.70;34.22;99095.06;4502915;31;20118;-80
2022/06/14 06:48:58;;;;;;;7.93;2.15;;;;;;;24.88;34.23;99103.03;4488908;31;20087;-80
2022/06/14 06:51:34;;;;;;;7.07;2.10;;;;;;;24.93;33.66;99099.81;4487938;31;20099;-80
2022/06/14 06:54:25;;;;;;;9.95;2.25;;;;;;;24.84;34.32;99106.19;4489193;31;20119;-80
2022/06/14 06:56:53;;;;;;;7.62;2.30;;;;;;;24.93;33.31;99106.03;4477534;31;20114;-80
2022/06/14 06:59:26;;;;;;;9.30;2.50;;;;;;;24.82;33.44;99101.00;4488466;31;20106;-80
2022/06/14 07:01:53;;;;;;;9.73;2.35;;;;;;;25.19;32.83;99099.66;4488634;31;20132;-80
2022/06/14 07:04:19;;;;;;;;;;;;;;;25.35;31.56;99100.66;4488778;31;20105;-80
2022/06/14 07:06:51;;;;;;;8.30;2.10;;;;;;;25.47;31.25;99105.50;4502831;31;20375;-80
2022/06/14 07:09:27;;;;;;;8.48;2.50;;;;;;;25.43;31.56;99104.19;4488494;31;20207;-80
2022/06/14 07:11:59;;;;;;;8.35;2.15;;;;;;;25.34;30.67;99099.81;4488332;31;20087;-80
2022/06/14 07:14:32;;;;;;;9.60;2.10;;;;;;;25.13;29.49;99103.03;4488393;31;20451;-80
2022/06/14 07:17:05;;;;;;;8.90;2.10;;;;;;;25.15;28.61;99101.00;4488298;31;20093;-80
2022/06/14 07:19:34;;;;;;;6.25;1.87;;;;;;;25.04;28.66;99106.72;4488426;31;20148;-80
2022/06/14 07:22:08;;;;;;;7.57;1.65;;;;;;;25.10;28.61;99101.50;4475239;31;20084;-80
2022/06/14 07:24:48;;;;;;;7.00;2.05;;;;;;;25.12;28.78;99102.16;4502831;31;20092;-80
2022/06/14 07:27:17;;;;;;;8.93;2.30;;;;;;;25.23;29.53;99095.63;4502565;31;20087;-80
2022/06/14 07:29:50;;;;;;;6.85;2.00;;;;;;;24.88;28.78;99105.72;4488439;31;20546;-80
2022/06/14 07:32:23;;;;;;;7.37;2.03;;;;;;;24.98;29.52;99108.25;4475000;31;20111;-80
2022/06/14 07:34:49;;;;;;;7.97;2.05;;;;;;;25.22;29.21;99104.72;4488252;31;20130;-80
2022/06/14 07:37:19;;;;;;;7.30;1.92;;;;;;;25.28;28.79;99112.16;4502422;31;20092;-80
2022/06/14 07:40:06;;;;;;;8.23;2.35;;;;;;;25.41;27.95;99106.22;4488309;31;20083;-80
2022/06/14 07:42:41;;;;;;;8.40;2.08;;;;;;;25.49;28.07;99102.66;4474796;31;20080;-80
2022/06/14 07:45:08;;;;;;;10.18;2.80;;;;;;;25.05;27.10;99114.66;4502458;31;20092;-80
2022/06/14 07:47:54;;;;;;;7.70;1.90;;;;;;;25.07;27.22;99107.25;4487992;31;20126;-80
2022/06/14 07:50:29;;;;;;;7.75;2.00;;;;;;;24.86;26.97;99098.78;4488170;31;20080;-80
2022/06/14 07:53:02;;;;;;;8.25;2.22;;;;;;;24.87;27.09;99124.75;4502177;31;20476;-80
2022/06/14 07:55:34;;;;;;;6.97;1.80;;;;;;;24.63;25.75;99115.63;4487954;31;20100;-80
2022/06/14 07:58:04;;;;;;;7.25;2.00;;;;;;;24.71;26.84;99107.53;4487965;31;20116;-80
2022/06/14 08:03:30;;;;;;;8.32;2.08;;;;;;;24.85;26.57;99102.50;4503486;31;20487;-80
2022/06/14 08:05:56;;;;;;;9.52;2.20;;;;;;;24.92;27.54;99117.00;4489912;31;20146;-80
2022/06/14 08:08:27;;;;;;;9.25;2.12;;;;;;;24.88;27.02;99107.56;4489747;31;20120;-80
2022/06/14 08:10:55;;;;;;;8.38;2.28;;;;;;;25.04;27.53;99114.81;4489697;31;20144;-80
2022/06/14 08:13:28;;;;;;;8.77;2.45;;;;;;;25.27;28.63;99109.63;4489679;31;20355;-80
2022/06/14 08:15:55;;;;;;;9.73;2.10;;;;;;;25.35;28.99;99117.69;4489800;31;20100;-80
2022/06/14 08:18:40;;;;;;;10.95;2.50;;;;;;;25.26;29.62;99119.53;4487387;32;20127;-80
2022/06/14 08:21:16;;;;;;;8.30;2.30;;;;;;;25.40;30.15;99107.25;4488122;31;20145;-80
2022/06/14 08:23:56;;;;;;;5.93;1.87;;;;;;;25.39;29.22;99110.94;4487028;32;20156;-80
2022/06/14 08:26:22;;;;;;;10.73;2.15;;;;;;;25.35;27.44;99114.97;4488150;31;20092;-80
2022/06/14 08:28:48;;;;;;;11.52;2.20;;;;;;;25.36;28.68;99118.50;4486866;32;20104;-80
2022/06/14 08:31:37;;;;;;;8.00;2.05;;;;;;;25.19;28.35;99123.03;4486831;32;20115;-80
2022/06/14 08:34:05;;;;;;;9.10;2.05;;;;;;;25.16;27.56;99116.16;4487797;32;20126;-80
2022/06/14 08:36:39;;;;;;;10.43;2.15;;;;;;;25.06;28.05;99123.56;4486859;32;20171;-80
2022/06/14 08:39:09;;;;;;;7.40;1.80;;;;;;;24.96;29.67;99120.22;4487049;32;20112;-80
2022/06/14 08:41:44;;;;;;;9.70;2.20;;;;;;;25.01;29.44;99115.13;4486884;32;20110;-80
2022/06/14 08:44:22;;;;;;;6.87;1.77;;;;;;;25.09;28.67;99113.31;4487990;31;20115;-80
2022/06/14 08:46:51;;;;;;;8.65;2.03;;;;;;;25.04;28.20;99121.03;4488022;31;20127;-80
2022/06/14 08:49:31;;;;;;;6.35;1.87;;;;;;;25.07;28.11;99109.94;4488113;31;20157;-80
2022/06/14 08:52:35;;;;;;;8.07;1.85;;;;;;;25.39;26.62;99116.31;4486751;32;20153;-80
2022/06/14 08:55:17;;;;;;;6.87;2.00;;;;;;;25.22;27.29;99111.94;4488208;32;20111;-80
2022/06/14 08:58:08;;;;;;;7.35;1.98;;;;;;;25.16;26.40;99113.44;4486715;32;20530;-80
2022/06/14 09:00:36;;;;;;;9.70;1.80;;;;;;;24.97;27.09;99129.97;4486742;32;20116;-80
2022/06/14 09:03:16;;;;;;;9.85;1.77;;;;;;;25.12;27.26;99110.25;4486520;32;20111;-80
2022/06/14 09:06:04;;;;;;;6.28;1.73;;;;;;;24.77;27.30;99113.28;4487050;32;20424;-80
2022/06/14 09:09:07;;;;;;;5.95;1.62;;;;;;;25.12;25.84;99106.72;4487973;32;20119;-80
2022/06/14 09:11:35;;;;;;;6.40;1.48;;;;;;;25.36;25.14;99105.03;4486679;32;20557;-80
2022/06/14 09:14:52;;;;;;;4.40;1.27;;;;;;;25.50;23.91;99112.44;4487383;31;20077;-80
2022/06/14 09:17:32;;;;;;;8.88;1.90;;;;;;;25.54;25.30;99115.66;4438721;32;20081;-80
2022/06/14 09:20:05;;;;;;;6.60;1.80;;;;;;;25.47;25.79;99096.59;4438860;32;20157;-80
2022/06/14 09:23:09;;;;;;;15.10;2.03;;;;;;;25.48;25.82;99109.91;4426061;32;20127;-80
2022/06/14 09:25:46;;;;;;;8.73;1.65;;;;;;;25.72;25.28;99105.47;4438808;32;20558;-80
2022/06/14 09:28:24;;;;;;;4.47;1.50;;;;;;;25.62;24.45;99111.06;4438850;32;20132;-80
2022/06/14 09:31:30;;;;;;;6.68;1.70;;;;;;;25.48;24.62;99104.50;4425874;32;20094;-80
2022/06/14 09:34:14;;;;;;;8.27;1.90;;;;;;;25.50;24.59;99107.03;4425841;32;20127;-80
2022/06/14 09:37:17;;;;;;;6.68;1.90;;;;;;;25.44;25.77;99102.31;4438721;32;20160;-80
2022/06/14 09:40:07;;;;;;;8.65;1.90;;;;;;;25.52;25.44;99115.81;4393031;32;20110;-80
2022/06/14 09:43:00;;;;;;;6.00;1.55;;;;;;;25.14;24.71;99110.09;4392916;32;20169;-80
2022/06/14 09:45:32;;;;;;;8.00;1.98;;;;;;;25.12;25.80;99098.62;4392924;32;20378;-80
2022/06/14 09:48:22;;;;;;;6.65;1.70;;;;;;;25.36;26.12;99100.47;4392873;32;20106;-80
2022/06/14 09:51:15;;;;;;;8.02;2.03;;;;;;;25.55;25.65;99095.72;4380330;32;20619;-80
2022/06/14 09:53:49;;;;;;;7.50;1.83;;;;;;;25.69;25.65;99097.69;4417183;32;20723;-80
2022/06/14 09:56:33;;;;;;;8.18;1.90;;;;;;;25.72;25.15;99099.22;4423278;32;20214;-80
2022/06/14 09:59:10;;;;;;;6.03;1.65;;;;;;;25.60;24.78;99101.47;4423214;32;20084;-80
2022/06/14 10:01:54;;;;;;;7.03;2.00;;;;;;;25.68;24.48;99096.88;4423152;32;20090;-80
2022/06/14 10:04:42;;;;;;;6.28;1.90;;;;;;;25.13;24.00;99105.72;4423194;32;20094;-80
2022/06/14 10:07:52;;;;;;;9.63;1.90;;;;;;;24.91;25.36;99113.44;4423208;32;20106;-80
2022/06/14 10:10:46;;;;;;;11.48;2.22;;;;;;;24.45;26.05;99112.19;4377419;32;20172;-80
2022/06/14 10:13:26;;;;;;;8.35;1.87;;;;;;;24.53;26.60;99110.41;4385453;32;20496;-80
2022/06/14 10:16:14;;;;;;;6.90;2.10;;;;;;;24.79;27.16;99113.97;4407725;32;20114;-80
2022/06/14 10:18:58;;;;;;;6.60;1.73;;;;;;;24.79;26.93;99108.56;4407842;32;20125;-80
2022/06/14 10:21:29;;;;;;;6.55;1.98;;;;;;;25.01;26.87;99112.44;4407769;32;20086;-80
2022/06/14 10:24:06;;;;;;;8.68;2.20;;;;;;;25.03;26.91;99105.03;4395155;32;20442;-80
2022/06/14 10:29:55;;;;;;;9.75;2.28;;;;;;;24.83;27.31;99091.91;4407753;32;20131;-80
2022/06/14 10:32:31;;;;;;;8.98;2.42;;;;;;;24.96;26.95;99085.19;4407606;32;20098;-80
2022/06/14 10:35:12;;;;;;;12.35;2.40;;;;;;;24.99;27.63;99091.03;4394943;32;20085;-80
2022/06/14 10:38:02;;;;;;;9.32;2.00;;;;;;;25.61;27.27;99084.25;4407653;32;20110;-80
2022/06/14 10:40:59;;;;;;;6.03;1.98;;;;;;;25.78;26.43;99093.13;4407617;32;20098;-80
2022/06/14 10:43:53;;;;;;;7.43;2.08;;;;;;;25.81;25.83;99076.59;4362253;32;20487;-80
2022/06/14 10:46:24;;;;;;;7.55;2.08;;;;;;;26.01;24.66;99064.37;4368792;32;20555;-80
2022/06/14 10:49:01;;;;;;;5.72;1.90;;;;;;;25.80;25.87;99074.91;4395235;32;20154;-80
2022/06/14 10:51:47;;;;;;;9.52;1.90;;;;;;;25.99;25.52;99074.50;4407647;32;20105;-80
2022/06/14 10:54:24;;;;;;;9.05;1.77;;;;;;;25.59;26.13;99073.63;4407545;32;20158;-80
2022/06/14 10:56:59;;;;;;;8.70;2.00;;;;;;;25.65;26.80;99062.16;4407563;32;20136;-80
2022/06/14 10:59:38;;;;;;;7.18;2.10;;;;;;;25.79;25.93;99067.84;4394814;32;20171;-80
2022/06/14 11:02:41;;;;;;;7.20;1.90;;;;;;;25.48;25.04;99072.16;4407609;32;20070;-80
2022/06/14 11:05:31;;;;;;;5.93;1.80;;;;;;;25.60;25.17;99052.91;4407260;32;20144;-80
2022/06/14 11:07:56;;;;;;;6.25;1.85;;;;;;;25.96;25.45;99060.53;4382205;32;20127;-80
2022/06/14 11:10:57;;;;;;;7.60;1.95;;;;;;;25.93;25.57;99053.63;4407308;32;20125;-80
2022/06/14 11:13:38;;;;;;;10.13;2.37;;;;;;;25.99;24.98;99052.91;4396915;32;20098;-80
2022/06/14 11:16:03;;;;;;;6.70;1.70;;;;;;;26.22;24.16;99055.66;4407571;32;20116;-80
2022/06/14 11:18:34;;;;;;;8.05;1.90;;;;;;;26.14;24.94;99047.63;4409130;32;20106;-80
2022/06/14 11:21:06;;;;;;;7.95;1.83;;;;;;;26.14;25.24;99061.13;4469747;32;20353;-80
2022/06/14 11:23:42;;;;;;;5.43;2.40;;;;;;;26.62;24.67;99064.56;4471227;32;20418;-80
2022/06/14 11:26:09;;;;;;;5.50;1.75;;;;;;;26.29;23.34;99048.53;4470181;32;20077;-80
2022/06/14 11:28:44;;;;;;;10.10;1.85;;;;;;;25.93;23.72;99056.31;4456882;32;20114;-80
2022/06/14 11:31:22;;;;;;;6.35;1.85;;;;;;;26.18;24.28;99061.59;4471116;32;20119;-80
2022/06/14 11:33:55;;;;;;;;;;;;;;;26.02;25.27;99052.56;4471363;32;20085;-80
2022/06/14 11:36:26;;;;;;;16.23;2.60;;;;;;;26.32;24.98;99068.09;4469813;32;20076;-81
2022/06/14 11:39:01;;;;;;;7.10;1.80;;;;;;;26.29;25.11;99069.31;4471030;32;20085;-80
2022/06/14 11:41:34;;;;;;;6.32;2.08;;;;;;;26.40;25.51;99059.94;4469851;32;20131;-80
2022/06/14 11:44:23;;;;;;;6.50;2.03;;;;;;;25.43;26.61;99068.28;4469990;32;20084;-80
2022/06/14 11:47:18;;;;;;;8.00;2.08;;;;;;;25.42;25.82;99072.84;4470971;32;20155;-80
2022/06/14 11:49:51;;;;;;;6.43;2.28;;;;;;;25.51;26.08;99069.09;4469740;32;20076;-80
2022/06/14 11:52:23;;;;;;;7.30;2.05;;;;;;;25.70;26.42;99065.16;4469743;32;20120;-80
2022/06/14 11:55:03;;;;;;;7.43;1.98;;;;;;;25.74;26.86;99075.59;4470979;32;20088;-80
2022/06/14 11:57:41;;;;;;;9.13;2.20;;;;;;;25.91;25.94;99066.47;4470865;32;20148;-80
2022/06/14 12:00:10;;;;;;;7.15;2.00;;;;;;;25.70;25.60;99078.63;4469607;32;20163;-80
2022/06/14 12:02:40;;;;;;;6.90;1.85;;;;;;;25.62;25.78;99065.19;4470761;32;20093;-80
2022/06/14 12:05:33;;;;;;;7.32;2.10;;;;;;;25.69;25.98;99063.50;4469627;32;20119;-80
2022/06/14 12:08:49;;;;;;;6.40;2.10;;;;;;;25.90;26.25;99078.22;4470988;32;20132;-80
2022/06/14 12:11:27;;;;;;;9.70;2.10;;;;;;;25.57;26.23;99067.56;4406696;32;20144;-80
2022/06/14 12:14:38;;;;;;;8.93;2.37;;;;;;;25.51;26.90;99063.69;4406551;32;20406;-80
2022/06/14 12:17:20;;;;;;;6.30;2.12;;;;;;;25.49;26.23;99070.28;4407709;32;20098;-80
2022/06/14 12:20:02;;;;;;;6.30;1.87;;;;;;;25.49;26.44;99070.28;4421894;32;20081;-80
2022/06/14 12:22:39;;;;;;;7.18;2.10;;;;;;;25.21;27.12;99070.66;4409206;32;20098;-80
2022/06/14 12:28:21;;;;;;;7.82;1.95;;;;;;;25.43;27.13;99068.28;4410898;32;20496;-80
2022/06/14 12:30:50;;;;;;;7.97;2.22;;;;;;;25.50;27.59;99058.50;4421775;32;20086;-81
2022/06/14 12:33:29;;;;;;;29.60;3.65;;;;;;;25.57;28.20;99059.47;4408822;32;20389;-81
2022/06/14 12:36:15;;;;;;;11.60;2.25;;;;;;;25.36;28.96;99073.50;4409378;32;20285;-81
2022/06/14 12:38:42;;;;;;;8.18;2.12;;;;;;;25.51;28.88;99071.78;4421627;32;20097;-81
2022/06/14 12:41:32;;;;;;;7.90;2.00;;;;;;;25.55;28.73;99068.75;4408949;32;20118;-81